createdAt,value
2019-02-04T00:00:57.784Z,0.85
2019-02-04T00:03:29.111Z,0.79
2019-02-04T00:05:59.468Z,0.74
2019-02-04T00:08:31.831Z,0.75
2019-02-04T00:11:02.584Z,0.76
2019-02-04T00:13:33.204Z,0.75
2019-02-04T00:16:04.051Z,0.76
2019-02-04T00:18:35.524Z,0.77
2019-02-04T00:21:18.112Z,0.77
2019-02-04T00:23:48.933Z,0.79
2019-02-04T00:26:20.145Z,0.80
2019-02-04T00:28:51.825Z,0.81
2019-02-04T00:31:22.842Z,0.81
2019-02-04T00:33:53.616Z,0.81
2019-02-04T00:36:38.618Z,0.80
2019-02-04T00:39:11.360Z,0.75
2019-02-04T00:42:06.483Z,0.75
2019-02-04T00:44:37.842Z,0.73
2019-02-04T00:47:08.246Z,0.74
2019-02-04T00:49:39.639Z,0.74
2019-02-04T00:52:10.247Z,0.75
2019-02-04T00:54:41.654Z,0.73
2019-02-04T00:57:12.407Z,0.74
2019-02-04T00:59:43.736Z,0.76
2019-02-04T01:02:14.543Z,0.75
2019-02-04T01:04:45.382Z,0.71
2019-02-04T01:07:16.396Z,0.71
2019-02-04T01:09:47.422Z,0.69
2019-02-04T01:12:17.813Z,0.68
2019-02-04T01:14:49.320Z,0.70
2019-02-04T01:17:19.647Z,0.76
2019-02-04T01:19:51.092Z,0.78
2019-02-04T01:22:22.090Z,0.79
2019-02-04T01:24:53.028Z,0.76
2019-02-04T01:27:24.190Z,0.67
2019-02-04T01:29:54.912Z,0.66
2019-02-04T01:32:25.870Z,0.68
2019-02-04T01:34:56.666Z,0.62
2019-02-04T01:37:27.707Z,0.59
2019-02-04T01:39:59.392Z,0.57
2019-02-04T01:42:30.733Z,0.55
2019-02-04T01:45:02.010Z,0.51
2019-02-04T01:47:32.622Z,0.49
2019-02-04T01:50:03.769Z,0.47
2019-02-04T01:52:35.133Z,0.45
2019-02-04T01:55:07.544Z,0.46
2019-02-04T01:57:38.240Z,0.44
2019-02-04T02:00:20.749Z,0.37
2019-02-04T03:02:05.747Z,-1.22
2019-02-04T03:04:36.834Z,-1.17
2019-02-04T03:07:07.792Z,-1.15
2019-02-04T03:09:38.561Z,-1.16
2019-02-04T03:12:10.399Z,-1.19
2019-02-04T03:14:42.030Z,-1.24
2019-02-04T03:17:13.053Z,-1.34
2019-02-04T03:19:48.932Z,-1.37
2019-02-04T03:22:21.118Z,-1.45
2019-02-04T03:24:52.128Z,-1.52
2019-02-04T03:27:23.229Z,-1.63
2019-02-04T03:29:54.595Z,-1.70
2019-02-04T03:32:25.222Z,-1.70
2019-02-04T03:34:56.964Z,-1.78
2019-02-04T03:37:27.272Z,-1.83
2019-02-04T03:39:59.478Z,-1.86
2019-02-04T03:42:30.488Z,-1.85
2019-02-04T03:45:01.189Z,-1.90
2019-02-04T03:47:32.500Z,-1.90
2019-02-04T03:50:03.573Z,-1.96
2019-02-04T03:52:34.614Z,-1.99
2019-02-04T03:55:05.597Z,-1.98
2019-02-04T03:57:36.590Z,-1.97
2019-02-04T04:00:14.015Z,-2.07
2019-02-04T04:02:45.436Z,-2.28
2019-02-04T04:05:16.452Z,-2.29
2019-02-04T04:07:47.391Z,-2.26
2019-02-04T04:10:18.671Z,-2.25
2019-02-04T04:12:49.796Z,-2.24
2019-02-04T04:15:20.714Z,-2.22
2019-02-04T04:17:51.558Z,-2.29
2019-02-04T04:20:23.268Z,-2.28
2019-02-04T04:22:54.817Z,-2.24
2019-02-04T04:25:25.947Z,-2.23
2019-02-04T04:27:57.238Z,-2.23
2019-02-04T04:30:28.607Z,-2.19
2019-02-04T04:32:59.892Z,-2.09
2019-02-04T04:35:31.171Z,-2.00
2019-02-04T04:38:02.131Z,-1.75
2019-02-04T04:40:33.524Z,-1.60
2019-02-04T04:43:04.958Z,-1.48
2019-02-04T04:45:37.412Z,-1.37
2019-02-04T04:48:09.070Z,-1.30
2019-02-04T04:50:40.405Z,-1.19
2019-02-04T04:53:11.434Z,-1.02
2019-02-04T04:55:42.094Z,-0.91
2019-02-04T04:58:12.854Z,-0.84
2019-02-04T05:00:43.647Z,-0.72
2019-02-04T05:03:14.355Z,-0.71
2019-02-04T05:05:45.345Z,-0.66
2019-02-04T05:08:16.087Z,-0.70
2019-02-04T05:10:47.221Z,-0.80
2019-02-04T05:13:18.618Z,-0.69
2019-02-04T05:15:56.070Z,-0.82
2019-02-04T05:18:37.471Z,-0.81
2019-02-04T05:20:59.505Z,-0.83
2019-02-04T05:23:30.321Z,-0.76
2019-02-04T05:26:00.972Z,-0.74
2019-02-04T05:28:32.744Z,-0.94
2019-02-04T05:31:04.815Z,-0.99
2019-02-04T05:33:36.480Z,-0.93
2019-02-04T05:36:07.154Z,-0.92
2019-02-04T05:38:37.868Z,-0.90
2019-02-04T05:41:08.881Z,-0.87
2019-02-04T05:43:39.510Z,-1.07
2019-02-04T05:46:27.548Z,-1.11
2019-02-04T05:48:58.631Z,-1.18
2019-02-04T05:51:29.968Z,-1.24
2019-02-04T05:54:06.041Z,-1.25
2019-02-04T05:56:37.507Z,-1.25
2019-02-04T05:59:08.107Z,-1.33
2019-02-04T06:01:39.319Z,-1.31
2019-02-04T06:04:25.666Z,-1.40
2019-02-04T06:06:57.573Z,-1.29
2019-02-04T06:09:28.625Z,-1.28
2019-02-04T06:11:59.637Z,-1.29
2019-02-04T06:14:30.389Z,-1.21
2019-02-04T06:17:39.275Z,-1.14
2019-02-04T06:20:13.793Z,-1.11
2019-02-04T06:22:45.245Z,-1.21
2019-02-04T06:25:16.118Z,-1.22
2019-02-04T06:27:46.938Z,-1.21
2019-02-04T06:30:17.945Z,-1.28
2019-02-04T06:32:49.399Z,-1.28
2019-02-04T06:35:21.590Z,-1.19
2019-02-04T06:37:52.473Z,-1.37
2019-02-04T06:40:23.473Z,-1.56
2019-02-04T06:42:55.199Z,-1.47
2019-02-04T06:45:25.985Z,-1.35
2019-02-04T06:47:57.300Z,-1.43
2019-02-04T06:50:28.524Z,-1.51
2019-02-04T06:52:59.589Z,-1.61
2019-02-04T06:55:33.435Z,-1.62
2019-02-04T06:58:05.030Z,-1.45
2019-02-04T07:00:35.648Z,-1.40
2019-02-04T07:03:06.585Z,-1.37
2019-02-04T07:05:43.973Z,-1.35
2019-02-04T07:08:10.318Z,-1.30
2019-02-04T07:10:45.279Z,-1.16
2019-02-04T07:13:15.920Z,-1.23
2019-02-04T07:15:46.939Z,-1.31
2019-02-04T07:18:18.490Z,-1.43
2019-02-04T07:20:49.862Z,-1.41
2019-02-04T07:23:20.861Z,-1.59
2019-02-04T07:25:51.186Z,-1.61
2019-02-04T07:28:22.430Z,-1.80
2019-02-04T07:30:52.752Z,-1.68
2019-02-04T07:33:24.511Z,-1.53
2019-02-04T07:35:55.160Z,-1.61
2019-02-04T07:38:26.542Z,-1.58
2019-02-04T07:40:57.169Z,-1.44
2019-02-04T07:43:28.641Z,-1.43
2019-02-04T07:45:59.454Z,-1.36
2019-02-04T07:48:29.796Z,-1.42
2019-02-04T07:51:01.053Z,-1.19
2019-02-04T07:53:31.380Z,-1.10
2019-02-04T07:56:04.182Z,-0.97
2019-02-04T07:58:35.225Z,-0.59
2019-02-04T08:01:06.239Z,-0.54
2019-02-04T08:03:36.567Z,-0.46
2019-02-04T08:06:07.235Z,-0.76
2019-02-04T08:08:38.263Z,-0.90
2019-02-04T08:11:08.643Z,-0.73
2019-02-04T08:13:40.002Z,-0.48
2019-02-04T08:16:13.333Z,-0.82
2019-02-04T08:18:46.162Z,-0.67
2019-02-04T08:21:17.274Z,-0.20
2019-02-04T08:23:48.322Z,-0.59
2019-02-04T08:26:20.056Z,-0.26
2019-02-04T08:28:51.334Z,0.07
2019-02-04T08:31:23.180Z,0.13
2019-02-04T08:33:54.622Z,0.20
2019-02-04T08:36:27.204Z,-0.06
2019-02-04T08:38:58.388Z,-0.42
2019-02-04T08:41:29.869Z,-0.50
2019-02-04T08:44:00.928Z,-0.57
2019-02-04T08:46:31.691Z,-0.79
2019-02-04T08:49:02.870Z,-0.52
2019-02-04T08:51:34.706Z,-0.54
2019-02-04T08:54:05.925Z,-0.34
2019-02-04T08:56:37.078Z,-0.36
2019-02-04T08:59:08.957Z,-0.40
2019-02-04T09:01:39.978Z,-0.27
2019-02-04T09:04:10.673Z,-0.14
2019-02-04T09:06:41.021Z,-0.41
2019-02-04T09:09:13.536Z,-0.19
2019-02-04T09:11:44.647Z,-0.23
2019-02-04T09:14:16.105Z,-0.17
2019-02-04T09:16:47.650Z,-0.07
2019-02-04T09:19:18.066Z,0.07
2019-02-04T09:21:49.530Z,0.26
2019-02-04T09:24:20.834Z,0.20
2019-02-04T09:26:51.159Z,0.81
2019-02-04T09:29:22.586Z,0.99
2019-02-04T09:31:53.258Z,1.02
2019-02-04T09:34:23.907Z,1.19
2019-02-04T09:36:54.567Z,1.28
2019-02-04T09:39:26.827Z,1.58
2019-02-04T09:41:57.936Z,1.45
2019-02-04T09:44:28.981Z,1.48
2019-02-04T09:47:01.457Z,1.58
2019-02-04T09:49:32.899Z,1.74
2019-02-04T09:52:03.491Z,1.91
2019-02-04T09:54:34.201Z,1.66
2019-02-04T09:57:05.280Z,2.32
2019-02-04T09:59:35.939Z,2.69
2019-02-04T10:02:07.016Z,2.68
2019-02-04T10:04:39.355Z,3.47
2019-02-04T10:07:10.046Z,3.32
2019-02-04T10:09:40.999Z,2.83
2019-02-04T10:12:11.665Z,3.16
2019-02-04T10:14:42.728Z,3.61
2019-02-04T10:17:14.985Z,3.57
2019-02-04T10:19:48.132Z,4.24
2019-02-04T10:22:19.824Z,4.15
2019-02-04T10:24:51.175Z,4.60
2019-02-04T10:27:22.576Z,5.65
2019-02-04T10:29:56.077Z,5.67
2019-02-04T10:32:26.845Z,5.41
2019-02-04T10:34:58.327Z,4.84
2019-02-04T10:37:29.024Z,4.56
2019-02-04T10:40:00.272Z,5.19
2019-02-04T10:42:31.431Z,6.98
2019-02-04T10:45:02.195Z,6.82
2019-02-04T10:47:32.912Z,7.27
2019-02-04T10:50:03.754Z,6.57
2019-02-04T10:52:34.347Z,7.04
2019-02-04T10:55:06.274Z,6.17
2019-02-04T10:57:40.591Z,4.48
2019-02-04T11:00:14.112Z,4.62
2019-02-04T11:02:44.988Z,4.92
2019-02-04T11:05:20.210Z,4.69
2019-02-04T11:07:50.989Z,4.41
2019-02-04T11:10:25.047Z,4.25
2019-02-04T11:12:56.089Z,4.97
2019-02-04T11:15:27.442Z,5.11
2019-02-04T11:17:58.822Z,5.53
2019-02-04T11:20:31.529Z,5.78
2019-02-04T11:23:03.186Z,6.50
2019-02-04T11:25:33.932Z,5.43
2019-02-04T11:28:06.028Z,5.79
2019-02-04T11:31:11.503Z,5.47
2019-02-04T11:33:42.825Z,5.89
2019-02-04T11:36:14.018Z,7.70
2019-02-04T11:38:45.545Z,8.08
2019-02-04T11:41:16.180Z,7.32
2019-02-04T11:43:47.208Z,7.53
2019-02-04T11:46:18.468Z,6.80
2019-02-04T11:49:05.073Z,6.44
2019-02-04T11:51:36.343Z,6.43
2019-02-04T11:54:07.691Z,5.96
2019-02-04T11:56:38.767Z,5.12
2019-02-04T11:59:09.505Z,4.80
2019-02-04T12:01:40.445Z,6.23
2019-02-04T12:04:11.584Z,6.71
2019-02-04T12:06:42.323Z,7.13
2019-02-04T12:09:13.997Z,9.01
2019-02-04T12:11:44.613Z,9.43
2019-02-04T12:14:14.975Z,8.86
2019-02-04T12:16:45.678Z,8.27
2019-02-04T12:19:15.997Z,7.86
2019-02-04T12:21:47.419Z,8.62
2019-02-04T12:24:18.498Z,6.62
2019-02-04T12:26:49.919Z,6.30
2019-02-04T12:29:20.323Z,6.70
2019-02-04T12:31:51.295Z,6.92
2019-02-04T12:34:22.918Z,7.43
2019-02-04T12:37:01.077Z,7.65
2019-02-04T12:39:31.843Z,7.17
2019-02-04T12:42:02.824Z,7.03
2019-02-04T12:44:33.904Z,5.87
2019-02-04T12:47:43.609Z,5.23
2019-02-04T12:50:14.307Z,4.76
2019-02-04T12:52:44.908Z,5.07
2019-02-04T12:55:19.763Z,4.86
2019-02-04T12:57:51.083Z,5.81
2019-02-04T13:00:25.419Z,6.08
2019-02-04T13:02:56.091Z,6.65
2019-02-04T13:05:36.565Z,6.37
2019-02-04T13:08:09.600Z,6.85
2019-02-04T13:10:41.536Z,6.84
2019-02-04T13:13:15.552Z,6.54
2019-02-04T13:15:46.973Z,7.05
2019-02-04T13:18:18.320Z,8.06
2019-02-04T13:20:52.811Z,8.69
2019-02-04T13:23:24.299Z,8.79
2019-02-04T13:25:56.578Z,10.67
2019-02-04T13:28:28.338Z,9.91
2019-02-04T13:31:06.341Z,9.28
2019-02-04T13:33:37.262Z,8.49
2019-02-04T13:36:07.883Z,8.44
2019-02-04T13:38:38.926Z,9.10
2019-02-04T13:41:11.175Z,8.14
2019-02-04T13:43:42.316Z,10.11
2019-02-04T13:46:13.271Z,9.60
2019-02-04T13:48:44.209Z,8.13
2019-02-04T13:51:15.261Z,9.46
2019-02-04T13:53:46.514Z,8.80
2019-02-04T13:56:17.770Z,8.92
2019-02-04T13:58:48.228Z,9.26
2019-02-04T14:01:21.144Z,8.69
2019-02-04T14:03:52.726Z,9.23
2019-02-04T14:06:23.784Z,9.11
2019-02-04T14:08:55.421Z,9.20
2019-02-04T14:11:26.176Z,9.02
2019-02-04T14:13:56.984Z,9.48
2019-02-04T14:16:27.957Z,10.83
2019-02-04T14:18:58.687Z,11.66
2019-02-04T14:21:29.824Z,12.22
2019-02-04T14:24:00.723Z,10.86
2019-02-04T14:27:08.782Z,11.90
2019-02-04T14:29:39.841Z,12.31
2019-02-04T14:32:11.267Z,11.28
2019-02-04T14:34:42.599Z,8.79
2019-02-04T14:37:13.495Z,8.11
2019-02-04T14:39:44.551Z,9.14
2019-02-04T14:42:18.441Z,8.65
2019-02-04T14:45:34.572Z,6.82
2019-02-04T14:49:05.609Z,7.81
2019-02-04T14:52:30.546Z,6.55
2019-02-04T14:55:59.522Z,6.87
2019-02-04T14:59:24.333Z,7.09
2019-02-04T15:03:00.905Z,5.56
2019-02-04T15:06:28.571Z,5.09
2019-02-04T15:09:40.977Z,4.67
2019-02-04T15:13:08.503Z,4.11
2019-02-04T15:16:40.633Z,4.01
2019-02-04T15:20:25.496Z,3.77
2019-02-04T15:23:32.168Z,3.67
2019-02-04T15:27:09.285Z,3.60
2019-02-04T15:30:47.019Z,3.66
2019-02-04T15:34:32.792Z,3.50
2019-02-04T15:37:31.185Z,3.69
2019-02-04T15:40:26.349Z,3.65
2019-02-04T15:43:39.673Z,3.71
2019-02-04T15:46:58.264Z,3.63
2019-02-04T15:50:19.295Z,3.47
2019-02-04T15:52:50.018Z,3.32
2019-02-04T15:55:23.490Z,3.27
2019-02-04T15:57:55.259Z,3.14
2019-02-04T16:00:31.579Z,2.92
2019-02-04T16:03:03.050Z,2.69
2019-02-04T16:05:35.540Z,2.60
2019-02-04T16:08:06.637Z,2.54
2019-02-04T16:10:39.025Z,2.43
2019-02-04T16:13:09.725Z,2.33
2019-02-04T16:15:50.417Z,2.21
2019-02-04T16:18:21.532Z,2.09
2019-02-04T16:20:52.824Z,1.99
2019-02-04T16:23:32.460Z,1.93
2019-02-04T16:26:03.910Z,1.85
2019-02-04T16:28:34.969Z,1.76
2019-02-04T16:31:06.248Z,1.67
2019-02-04T16:33:36.878Z,1.59
2019-02-04T16:36:08.184Z,1.55
2019-02-04T16:38:39.634Z,1.52
2019-02-04T16:41:10.013Z,1.51
2019-02-04T16:43:41.997Z,1.52
2019-02-04T16:46:12.905Z,1.53
2019-02-04T16:48:43.889Z,1.56
2019-02-04T16:51:14.938Z,1.59
2019-02-04T16:53:46.437Z,1.57
2019-02-04T16:56:18.796Z,1.56
2019-02-04T16:58:49.822Z,1.52
2019-02-04T17:01:32.761Z,1.51
2019-02-04T17:04:03.836Z,1.54
2019-02-04T17:06:34.837Z,1.51
2019-02-04T17:09:08.558Z,1.52
2019-02-04T17:11:39.924Z,1.51
2019-02-04T17:14:11.230Z,1.51
2019-02-04T17:16:42.597Z,1.53
2019-02-04T17:19:12.900Z,1.55
2019-02-04T17:21:43.630Z,1.56
2019-02-04T17:24:14.666Z,1.58
2019-02-04T17:26:45.980Z,1.64
2019-02-04T17:29:17.224Z,1.67
2019-02-04T17:31:48.193Z,1.68
2019-02-04T17:34:19.290Z,1.70
2019-02-04T17:36:50.632Z,1.72
2019-02-04T17:39:21.725Z,1.73
2019-02-04T17:41:53.083Z,1.76
2019-02-04T17:44:24.454Z,1.75
2019-02-04T17:46:55.264Z,1.76
2019-02-04T17:49:25.569Z,1.80
2019-02-04T17:51:56.666Z,1.85
2019-02-04T17:54:27.953Z,1.83
2019-02-04T17:56:58.911Z,1.83
2019-02-04T17:59:30.054Z,1.81
2019-02-04T18:02:00.814Z,1.76
2019-02-04T18:04:32.303Z,1.79
2019-02-04T18:07:03.157Z,1.83
2019-02-04T18:09:33.812Z,1.86
2019-02-04T18:12:04.849Z,1.81
2019-02-04T18:14:36.216Z,1.89
2019-02-04T18:17:07.472Z,1.91
2019-02-04T18:19:38.468Z,1.88
2019-02-04T18:22:10.328Z,1.82
2019-02-04T18:24:41.381Z,1.75
2019-02-04T18:27:13.226Z,1.79
2019-02-04T18:29:44.090Z,1.81
2019-02-04T18:32:15.018Z,1.79
2019-02-04T18:34:47.581Z,1.76
2019-02-04T18:37:19.047Z,1.74
2019-02-04T18:39:50.036Z,1.75
2019-02-04T18:42:22.241Z,1.73
2019-02-04T18:44:53.746Z,1.75
2019-02-04T18:47:24.389Z,1.71
2019-02-04T18:49:55.435Z,1.67
2019-02-04T18:52:26.831Z,1.73
2019-02-04T18:54:58.186Z,1.73
2019-02-04T18:57:28.982Z,1.73
2019-02-04T18:59:59.345Z,1.71
2019-02-04T19:02:29.709Z,1.68
2019-02-04T19:05:00.688Z,1.64
2019-02-04T19:07:30.987Z,1.62
2019-02-04T19:10:02.120Z,1.58
2019-02-04T19:12:33.147Z,1.58
2019-02-04T19:15:04.558Z,1.61
2019-02-04T19:17:36.314Z,1.59
2019-02-04T19:20:10.819Z,1.60
2019-02-04T19:22:42.105Z,1.62
2019-02-04T19:25:13.255Z,1.59
2019-02-04T19:27:44.241Z,1.58
2019-02-04T19:30:46.126Z,1.56
2019-02-04T19:33:17.563Z,1.53
2019-02-04T19:35:49.717Z,1.52
2019-02-04T19:38:20.899Z,1.53
2019-02-04T19:40:51.963Z,1.56
2019-02-04T19:43:23.375Z,1.59
2019-02-04T19:45:54.118Z,1.60
2019-02-04T19:48:26.529Z,1.61
2019-02-04T19:50:58.287Z,1.65
2019-02-04T19:53:54.589Z,1.64
2019-02-04T19:56:25.431Z,1.60
2019-02-04T19:59:00.587Z,1.58
2019-02-04T20:01:50.644Z,1.58
2019-02-04T20:04:21.788Z,1.63
2019-02-04T20:06:57.562Z,1.63
2019-02-04T20:09:30.946Z,1.64
2019-02-04T20:12:02.391Z,1.64
2019-02-04T20:14:37.939Z,1.65
2019-02-04T20:17:08.271Z,1.65
2019-02-04T20:19:40.030Z,1.56
2019-02-04T20:22:16.457Z,1.51
2019-02-04T20:24:48.446Z,1.47
2019-02-04T20:27:21.182Z,1.49
2019-02-04T20:29:52.254Z,1.50
2019-02-04T20:32:32.636Z,1.53
2019-02-04T20:35:12.053Z,1.57
2019-02-04T20:37:45.675Z,1.63
2019-02-04T20:40:21.081Z,1.49
2019-02-04T20:42:55.540Z,1.46
2019-02-04T20:45:35.273Z,1.50
2019-02-04T20:48:17.481Z,1.44
2019-02-04T20:51:00.037Z,1.46
2019-02-04T20:53:37.107Z,1.53
2019-02-04T20:56:13.232Z,1.41
2019-02-04T20:58:50.089Z,1.40
2019-02-04T21:01:27.226Z,1.39
2019-02-04T21:03:59.921Z,1.42
2019-02-04T21:06:36.222Z,1.44
2019-02-04T21:09:11.416Z,1.51
2019-02-04T21:11:43.530Z,1.56
2019-02-04T21:14:14.461Z,1.57
2019-02-04T21:16:55.807Z,1.54
2019-02-04T21:19:44.295Z,1.55
2019-02-04T21:22:15.765Z,1.57
2019-02-04T21:24:56.301Z,1.60
2019-02-04T21:27:24.793Z,1.56
2019-02-04T21:29:57.613Z,1.50
2019-02-04T21:32:40.429Z,1.54
2019-02-04T21:35:15.556Z,1.50
2019-02-04T21:37:52.952Z,1.49
2019-02-04T21:40:27.478Z,1.49
2019-02-04T21:43:08.252Z,1.52
2019-02-04T21:45:44.481Z,1.56
2019-02-04T21:48:29.130Z,1.56
2019-02-04T21:51:04.782Z,1.60
2019-02-04T21:53:37.755Z,1.59
2019-02-04T21:56:09.322Z,1.55
2019-02-04T21:58:45.338Z,1.53
2019-02-04T22:01:24.038Z,1.51
2019-02-04T22:03:58.394Z,1.44
2019-02-04T22:06:36.203Z,1.43
2019-02-04T22:09:13.918Z,1.46
2019-02-04T22:11:45.462Z,1.45
2019-02-04T22:14:28.192Z,1.46
2019-02-04T22:17:06.192Z,1.43
2019-02-04T22:19:51.378Z,1.42
2019-02-04T22:22:31.515Z,1.41
2019-02-04T22:25:19.843Z,1.39
2019-02-04T22:27:53.164Z,1.36
2019-02-04T22:30:28.738Z,1.33
2019-02-04T22:33:10.184Z,1.27
2019-02-04T22:35:47.333Z,1.23
2019-02-04T22:38:21.261Z,1.22
2019-02-04T22:40:52.088Z,1.14
2019-02-04T22:43:24.965Z,1.10
2019-02-04T22:46:02.500Z,1.02
2019-02-04T22:48:36.061Z,0.96
2019-02-04T22:51:09.020Z,0.91
2019-02-04T22:53:40.474Z,0.92
2019-02-04T22:56:12.399Z,0.88
2019-02-04T22:58:43.817Z,0.87
2019-02-04T23:01:47.305Z,0.87
2019-02-04T23:04:18.363Z,0.86
2019-02-04T23:06:49.984Z,0.84
2019-02-04T23:09:21.132Z,0.81
2019-02-04T23:11:52.200Z,0.79
2019-02-04T23:14:24.054Z,0.75
2019-02-04T23:17:12.750Z,0.72
2019-02-04T23:20:00.509Z,0.67
2019-02-04T23:22:32.905Z,0.62
2019-02-04T23:25:04.000Z,0.61
2019-02-04T23:27:35.168Z,0.60
2019-02-04T23:30:11.392Z,0.55
2019-02-04T23:32:44.183Z,0.48
2019-02-04T23:35:16.119Z,0.42
2019-02-04T23:38:04.859Z,0.42
2019-02-04T23:40:35.632Z,0.41
2019-02-04T23:43:06.894Z,0.40
2019-02-04T23:45:37.924Z,0.39
2019-02-04T23:48:10.706Z,0.34
2019-02-04T23:50:41.602Z,0.26
2019-02-04T23:53:12.375Z,0.13
2019-02-04T23:55:54.407Z,0.04
2019-02-04T23:58:16.909Z,-0.02
